Terminal Aerodrome Forecast
Issued by NWS

Home | Current Version | Previous Version | Text Only | Print | Product List | Glossary Off
Versions: 1 2 3 4 5 6 7 8 9 10 11 12 13 14 15 16

000
FTUS43 KIWX 131721
TAFSBN
TAF
KSBN 131721Z 1318/1418 16013G23KT P6SM SCT040 BKN080
     FM132100 21013G20KT 4SM -SN OVC035
      TEMPO 1322/1402 2SM -SN OVC020
     FM140200 32012G19KT 3SM -SN OVC020
     FM140800 36010KT P6SM SCT060=

USA.gov is the U.S. government's official web portal to all federal, state and local government web resources and services.